createdAt,value
2022-08-04T00:00:45.134Z,1.63
2022-08-04T00:03:24.927Z,1.90
2022-08-04T00:06:10.841Z,2.37
2022-08-04T00:08:56.305Z,1.80
2022-08-04T00:11:26.273Z,2.73
2022-08-04T00:14:03.612Z,3.60
2022-08-04T00:16:37.900Z,5.27
2022-08-04T00:19:17.372Z,2.43
2022-08-04T00:21:51.496Z,2.83
2022-08-04T00:24:20.662Z,3.60
2022-08-04T00:26:47.833Z,3.60
2022-08-04T00:29:15.431Z,2.63
2022-08-04T00:31:56.842Z,3.10
2022-08-04T00:34:28.002Z,2.20
2022-08-04T00:36:56.615Z,1.30
2022-08-04T00:39:24.281Z,3.47
2022-08-04T00:42:16.042Z,2.07
2022-08-04T00:44:55.641Z,2.90
2022-08-04T00:47:37.533Z,7.60
2022-08-04T00:50:36.896Z,3.37
2022-08-04T00:53:09.257Z,3.33
2022-08-04T00:56:02.963Z,3.50
2022-08-04T00:58:57.519Z,4.80
2022-08-04T01:01:42.402Z,4.10
2022-08-04T01:04:21.996Z,3.53
2022-08-04T01:07:26.350Z,6.83
2022-08-04T01:10:08.311Z,3.40
2022-08-04T01:12:44.452Z,5.13
2022-08-04T01:15:56.332Z,3.40
2022-08-04T01:18:52.542Z,3.83
2022-08-04T01:21:41.145Z,3.70
2022-08-04T01:24:26.679Z,3.60
2022-08-04T01:27:22.527Z,2.30
2022-08-04T01:29:55.695Z,3.43
2022-08-04T01:32:38.334Z,3.80
2022-08-04T01:35:21.768Z,1.83
2022-08-04T01:37:54.830Z,2.20
2022-08-04T01:40:22.408Z,3.50
2022-08-04T01:42:53.043Z,2.43
2022-08-04T01:45:23.517Z,3.00
2022-08-04T01:47:55.882Z,8.40
2022-08-04T01:50:24.306Z,4.80
2022-08-04T01:52:54.266Z,2.43
2022-08-04T01:55:21.571Z,2.63
2022-08-04T01:57:51.584Z,3.70
2022-08-04T02:00:26.855Z,4.50
2022-08-04T02:02:54.888Z,2.83
2022-08-04T02:05:24.201Z,4.10
2022-08-04T02:08:28.885Z,3.80
2022-08-04T02:11:11.844Z,3.60
2022-08-04T02:13:41.564Z,3.70
2022-08-04T02:16:45.316Z,9.17
2022-08-04T02:19:32.244Z,12.40
2022-08-04T02:22:18.921Z,8.93
2022-08-04T02:24:59.296Z,3.77
2022-08-04T02:28:00.371Z,5.00
2022-08-04T02:30:19.649Z,3.67
2022-08-04T02:32:48.847Z,3.53
2022-08-04T02:35:25.650Z,3.13
2022-08-04T02:38:06.430Z,3.60
2022-08-04T02:40:33.825Z,4.63
2022-08-04T02:43:06.407Z,3.63
2022-08-04T02:45:37.002Z,2.03
2022-08-04T02:48:28.745Z,3.17
2022-08-04T02:50:54.523Z,2.57
2022-08-04T02:53:24.257Z,3.10
2022-08-04T02:55:52.738Z,3.13
2022-08-04T02:58:26.051Z,2.70
2022-08-04T03:00:53.052Z,3.47
2022-08-04T03:03:30.622Z,4.03
2022-08-04T03:06:10.903Z,2.70
2022-08-04T03:08:58.896Z,3.40
2022-08-04T03:12:05.860Z,3.87
2022-08-04T03:14:51.646Z,4.57
2022-08-04T03:17:56.131Z,2.43
2022-08-04T03:20:25.923Z,3.27
2022-08-04T03:23:14.264Z,4.07
2022-08-04T03:26:18.396Z,2.13
2022-08-04T03:29:36.871Z,3.80
2022-08-04T03:32:04.128Z,3.13
2022-08-04T03:34:42.472Z,4.20
2022-08-04T03:37:20.184Z,4.60
2022-08-04T03:40:08.816Z,3.97
2022-08-04T03:43:10.343Z,4.10
2022-08-04T03:46:35.381Z,2.30
2022-08-04T03:49:43.673Z,1.57
2022-08-04T03:52:40.949Z,2.37
2022-08-04T03:55:21.019Z,1.70
2022-08-04T03:58:34.051Z,2.57
2022-08-04T04:01:06.566Z,2.90
2022-08-04T04:03:50.833Z,4.83
2022-08-04T04:06:54.053Z,3.17
2022-08-04T04:09:28.761Z,2.67
2022-08-04T04:12:34.879Z,2.47
2022-08-04T04:15:35.381Z,2.97
2022-08-04T04:18:23.960Z,3.53
2022-08-04T04:21:15.734Z,3.20
2022-08-04T04:23:48.451Z,3.97
2022-08-04T04:26:24.541Z,5.27
2022-08-04T04:29:13.588Z,3.97
2022-08-04T04:32:04.483Z,6.97
2022-08-04T04:34:46.252Z,2.40
2022-08-04T04:37:31.349Z,4.10
2022-08-04T04:40:25.663Z,5.23
2022-08-04T04:42:55.642Z,4.20
2022-08-04T04:46:03.854Z,3.17
2022-08-04T04:48:44.727Z,2.70
2022-08-04T04:51:22.986Z,2.47
2022-08-04T04:54:02.412Z,3.53
2022-08-04T04:56:40.489Z,5.43
2022-08-04T04:59:17.089Z,5.23
2022-08-04T05:02:18.422Z,5.53
2022-08-04T05:04:48.018Z,4.57
2022-08-04T05:07:53.067Z,5.00
2022-08-04T05:10:35.116Z,7.10
2022-08-04T05:14:37.545Z,6.80
2022-08-04T05:16:20.640Z,12.30
2022-08-04T05:18:54.357Z,6.30
2022-08-04T05:21:45.270Z,7.30
2022-08-04T05:24:16.378Z,11.03
2022-08-04T05:26:50.338Z,9.13
2022-08-04T05:29:33.198Z,15.03
2022-08-04T05:32:07.149Z,8.27
2022-08-04T05:34:49.048Z,6.43
2022-08-04T05:37:18.837Z,8.90
2022-08-04T05:39:54.244Z,9.50
2022-08-04T05:42:23.425Z,9.03
2022-08-04T05:44:51.567Z,9.70
2022-08-04T05:47:21.590Z,14.67
2022-08-04T05:50:01.137Z,12.83
2022-08-04T05:52:31.156Z,15.90
2022-08-04T05:55:00.547Z,8.47
2022-08-04T05:57:28.637Z,12.20
2022-08-04T05:59:58.116Z,10.27
2022-08-04T06:02:27.850Z,10.83
2022-08-04T06:04:56.481Z,13.23
2022-08-04T06:07:23.643Z,8.37
2022-08-04T06:09:50.615Z,7.50
2022-08-04T06:12:26.814Z,11.53
2022-08-04T06:14:59.644Z,13.80
2022-08-04T06:19:56.368Z,10.63
2022-08-04T06:20:34.575Z,17.87
2022-08-04T06:23:05.948Z,10.33
2022-08-04T06:25:46.308Z,10.00
2022-08-04T06:28:15.372Z,14.10
2022-08-04T06:30:47.574Z,6.90
2022-08-04T06:33:27.529Z,13.00
2022-08-04T06:35:56.004Z,6.73
2022-08-04T06:38:29.329Z,9.17
2022-08-04T06:40:59.625Z,10.70
2022-08-04T06:43:32.494Z,12.63
2022-08-04T06:46:09.826Z,10.23
2022-08-04T06:48:37.582Z,12.70
2022-08-04T06:51:24.570Z,10.40
2022-08-04T06:53:52.872Z,7.73
2022-08-04T06:56:20.841Z,11.43
2022-08-04T06:58:48.699Z,8.60
2022-08-04T07:01:17.931Z,11.53
2022-08-04T07:03:45.149Z,13.40
2022-08-04T07:06:18.986Z,15.40
2022-08-04T07:08:46.130Z,11.07
2022-08-04T07:11:14.233Z,9.90
2022-08-04T07:13:45.239Z,14.27
2022-08-04T07:16:16.273Z,8.93
2022-08-04T07:18:43.942Z,12.00
2022-08-04T07:21:18.623Z,15.20
2022-08-04T07:23:46.057Z,10.93
2022-08-04T07:26:15.633Z,11.23
2022-08-04T07:28:42.986Z,9.67
2022-08-04T07:31:33.183Z,10.20
2022-08-04T07:34:16.494Z,11.93
2022-08-04T07:36:52.941Z,14.23
2022-08-04T07:39:27.259Z,10.97
2022-08-04T07:41:56.891Z,15.37
2022-08-04T07:44:25.197Z,9.80
2022-08-04T07:46:52.266Z,10.13
2022-08-04T07:49:55.823Z,12.50
2022-08-04T07:52:07.820Z,9.10
2022-08-04T07:54:35.802Z,10.33
2022-08-04T07:57:03.352Z,10.13
2022-08-04T07:59:30.865Z,10.70
2022-08-04T08:02:01.012Z,11.23
2022-08-04T08:04:29.761Z,12.23
2022-08-04T08:06:58.150Z,9.70
2022-08-04T08:09:25.144Z,10.47
2022-08-04T08:12:38.719Z,8.77
2022-08-04T08:14:41.337Z,5.37
2022-08-04T08:17:08.645Z,4.10
2022-08-04T08:19:36.219Z,3.97
2022-08-04T08:22:03.787Z,2.50
2022-08-04T08:24:34.755Z,1.97
2022-08-04T08:27:04.377Z,1.67
2022-08-04T08:29:34.445Z,1.60
2022-08-04T08:32:08.235Z,1.67
2022-08-04T08:34:37.282Z,2.20
2022-08-04T08:37:34.806Z,1.43
2022-08-04T08:40:40.768Z,1.87
2022-08-04T08:44:05.669Z,1.43
2022-08-04T08:46:49.412Z,1.63
2022-08-04T08:50:00.677Z,3.10
2022-08-04T08:52:57.471Z,1.43
2022-08-04T08:55:59.609Z,1.63
2022-08-04T08:58:44.571Z,1.23
2022-08-04T09:01:35.697Z,1.40
2022-08-04T09:04:40.185Z,1.43
2022-08-04T09:07:27.367Z,1.50
2022-08-04T09:10:11.943Z,1.37
2022-08-04T09:12:59.854Z,2.23
2022-08-04T09:15:45.353Z,2.07
2022-08-04T09:18:44.786Z,2.63
2022-08-04T09:21:33.811Z,1.50
2022-08-04T09:24:35.107Z,2.23
2022-08-04T09:27:05.392Z,2.60
2022-08-04T09:29:57.266Z,2.00
2022-08-04T09:32:39.519Z,1.47
2022-08-04T09:35:37.342Z,1.67
2022-08-04T09:38:16.188Z,1.10
2022-08-04T09:40:56.996Z,1.27
2022-08-04T09:44:42.789Z,1.10
2022-08-04T09:46:40.547Z,1.50
2022-08-04T09:49:18.035Z,2.00
2022-08-04T09:52:16.742Z,2.27
2022-08-04T09:54:59.342Z,2.83
2022-08-04T09:57:50.897Z,1.40
2022-08-04T10:00:20.719Z,1.83
2022-08-04T10:03:11.135Z,2.40
2022-08-04T10:05:49.092Z,1.50
2022-08-04T10:08:30.501Z,1.70
2022-08-04T10:11:08.504Z,2.20
2022-08-04T10:13:49.395Z,2.60
2022-08-04T10:16:43.719Z,1.50
2022-08-04T10:19:36.847Z,2.30
2022-08-04T10:22:28.053Z,1.87
2022-08-04T10:26:02.862Z,2.70
2022-08-04T10:28:04.202Z,2.23
2022-08-04T10:30:35.710Z,2.07
2022-08-04T10:33:24.582Z,2.30
2022-08-04T10:36:00.157Z,2.60
2022-08-04T10:38:33.428Z,3.03
2022-08-04T10:41:25.318Z,3.60
2022-08-04T10:44:14.475Z,1.73
2022-08-04T10:46:55.936Z,2.90
2022-08-04T10:49:41.776Z,1.40
2022-08-04T10:52:11.305Z,3.10
2022-08-04T10:55:07.691Z,3.10
2022-08-04T10:57:52.362Z,1.53
2022-08-04T11:00:24.901Z,1.30
2022-08-04T11:03:03.910Z,2.03
2022-08-04T11:05:44.072Z,2.73
2022-08-04T11:08:24.682Z,4.40
2022-08-04T11:11:09.626Z,2.90
2022-08-04T11:13:49.720Z,2.95
2022-08-04T11:16:39.591Z,2.70
2022-08-04T11:19:45.345Z,1.80
2022-08-04T11:22:29.243Z,2.57
2022-08-04T11:25:19.356Z,3.33
2022-08-04T11:28:30.425Z,3.50
2022-08-04T11:31:19.629Z,5.10
2022-08-04T11:33:49.517Z,1.77
2022-08-04T11:36:44.351Z,2.40
2022-08-04T11:39:24.400Z,3.63
2022-08-04T11:42:18.706Z,3.00
2022-08-04T11:44:59.669Z,3.13
2022-08-04T11:47:40.104Z,3.37
2022-08-04T11:50:30.209Z,4.90
2022-08-04T11:52:59.247Z,3.40
2022-08-04T11:55:28.407Z,3.83
2022-08-04T11:57:55.888Z,3.40
2022-08-04T12:00:25.118Z,3.93
2022-08-04T12:03:15.631Z,5.20
2022-08-04T12:05:55.006Z,3.00
2022-08-04T12:08:44.414Z,1.53
2022-08-04T12:11:34.852Z,2.47
2022-08-04T12:14:14.787Z,2.50
2022-08-04T12:17:00.347Z,2.10
2022-08-04T12:19:58.663Z,2.17
2022-08-04T12:22:37.039Z,2.80
2022-08-04T12:25:16.299Z,2.47
2022-08-04T12:27:55.157Z,3.40
2022-08-04T12:30:56.489Z,4.03
2022-08-04T12:33:20.117Z,1.27
2022-08-04T12:36:11.225Z,1.20
2022-08-04T12:38:52.416Z,1.80
2022-08-04T12:41:24.736Z,1.87
2022-08-04T12:43:52.740Z,1.60
2022-08-04T12:46:26.779Z,2.37
2022-08-04T12:49:01.582Z,1.80
2022-08-04T12:52:08.556Z,3.00
2022-08-04T12:54:29.149Z,3.17
2022-08-04T12:57:01.281Z,1.83
2022-08-04T12:59:28.708Z,2.43
2022-08-04T13:02:08.704Z,2.40
2022-08-04T13:04:42.801Z,3.37
2022-08-04T13:07:24.781Z,4.60
2022-08-04T13:09:53.369Z,2.13
2022-08-04T13:12:32.688Z,1.30
2022-08-04T13:15:18.121Z,2.73
2022-08-04T13:20:57.017Z,1.87
2022-08-04T13:23:27.536Z,2.87
2022-08-04T13:26:44.159Z,8.33
2022-08-04T13:29:16.350Z,2.20
2022-08-04T13:30:23.938Z,5.63
2022-08-04T13:31:53.031Z,4.93
2022-08-04T13:34:21.208Z,5.10
2022-08-04T13:36:48.927Z,3.57
2022-08-04T13:39:18.949Z,2.63
2022-08-04T13:41:59.063Z,2.67
2022-08-04T13:44:34.080Z,4.20
2022-08-04T13:47:10.146Z,2.27
2022-08-04T13:50:00.845Z,2.80
2022-08-04T13:52:26.909Z,2.40
2022-08-04T13:54:53.878Z,1.77
2022-08-04T13:57:30.224Z,2.60
2022-08-04T14:00:09.562Z,1.63
2022-08-04T14:03:00.823Z,1.50
2022-08-04T14:05:33.876Z,2.57
2022-08-04T14:08:21.986Z,3.97
2022-08-04T14:10:57.631Z,1.93
2022-08-04T14:13:41.181Z,2.63
2022-08-04T14:16:20.713Z,2.23
2022-08-04T14:18:48.339Z,3.03
2022-08-04T14:21:17.571Z,3.97
2022-08-04T14:23:50.670Z,4.90
2022-08-04T14:26:37.989Z,3.60
2022-08-04T14:29:26.948Z,8.50
2022-08-04T14:32:22.912Z,5.00
2022-08-04T14:34:53.193Z,3.27
2022-08-04T14:37:22.359Z,3.10
2022-08-04T14:40:19.218Z,1.37
2022-08-04T14:42:44.485Z,2.50
2022-08-04T14:45:34.566Z,5.70
2022-08-04T14:48:07.521Z,2.93
2022-08-04T14:50:37.814Z,3.93
2022-08-04T14:53:15.968Z,4.40
2022-08-04T14:55:46.999Z,3.60
2022-08-04T14:58:34.215Z,3.80
2022-08-04T15:01:11.489Z,2.27
2022-08-04T15:03:50.380Z,3.07
2022-08-04T15:06:23.584Z,2.20
2022-08-04T15:08:52.654Z,2.70
2022-08-04T15:11:23.248Z,3.13
2022-08-04T15:13:54.826Z,3.80
2022-08-04T15:16:25.421Z,2.90
2022-08-04T15:18:54.913Z,6.60
2022-08-04T15:21:26.009Z,4.03
2022-08-04T15:23:53.023Z,3.57
2022-08-04T15:26:43.084Z,3.90
2022-08-04T15:29:20.627Z,3.10
2022-08-04T15:32:06.131Z,4.23
2022-08-04T15:34:50.004Z,2.70
2022-08-04T15:37:48.211Z,4.67
2022-08-04T15:40:51.402Z,4.10
2022-08-04T15:43:36.934Z,2.50
2022-08-04T15:46:43.054Z,1.87
2022-08-04T15:48:52.149Z,1.40
2022-08-04T15:51:31.926Z,1.13
2022-08-04T15:54:03.001Z,1.97
2022-08-04T15:56:31.135Z,1.60
2022-08-04T15:58:58.769Z,1.80
2022-08-04T16:01:27.551Z,1.07
2022-08-04T16:03:59.873Z,1.20
2022-08-04T16:06:29.835Z,1.10
2022-08-04T16:09:05.095Z,1.20
2022-08-04T16:11:40.044Z,1.50
2022-08-04T16:14:10.865Z,1.37
2022-08-04T16:16:45.085Z,1.20
2022-08-04T16:19:23.880Z,1.57
2022-08-04T16:21:53.091Z,1.83
2022-08-04T16:24:21.343Z,2.57
2022-08-04T16:26:54.562Z,2.40
2022-08-04T16:29:23.157Z,1.80
2022-08-04T16:32:05.643Z,2.30
2022-08-04T16:34:55.238Z,2.23
2022-08-04T16:37:32.334Z,1.37
2022-08-04T16:40:37.226Z,1.87
2022-08-04T16:43:13.836Z,1.20
2022-08-04T16:45:46.100Z,1.40
2022-08-04T16:48:14.504Z,1.33
2022-08-04T16:50:54.150Z,1.43
2022-08-04T16:53:52.241Z,2.60
2022-08-04T16:56:11.252Z,1.40
2022-08-04T16:58:38.223Z,1.37
2022-08-04T17:01:21.880Z,1.70
2022-08-04T17:04:04.931Z,1.70
2022-08-04T17:06:41.894Z,1.37
2022-08-04T17:09:19.604Z,1.90
2022-08-04T17:11:48.196Z,1.30
2022-08-04T17:14:22.770Z,1.40
2022-08-04T17:16:50.294Z,1.67
2022-08-04T17:19:24.303Z,1.40
2022-08-04T17:22:04.686Z,1.67
2022-08-04T17:24:38.567Z,2.10
2022-08-04T17:28:19.918Z,1.37
2022-08-04T17:29:54.848Z,0.90
2022-08-04T17:32:23.446Z,1.00
2022-08-04T17:34:57.449Z,1.63
2022-08-04T17:37:52.800Z,2.40
2022-08-04T17:44:03.906Z,1.20
2022-08-04T17:46:16.348Z,2.30
2022-08-04T17:49:23.152Z,1.77
2022-08-04T17:52:04.855Z,1.70
2022-08-04T17:54:37.403Z,1.23
2022-08-04T17:57:20.716Z,2.47
2022-08-04T18:02:54.524Z,1.63
2022-08-04T18:06:02.106Z,1.57
2022-08-04T18:08:37.794Z,1.60
2022-08-04T18:11:04.834Z,1.03
2022-08-04T18:13:42.885Z,1.60
2022-08-04T18:16:22.982Z,1.40
2022-08-04T18:19:10.364Z,1.70
2022-08-04T18:21:46.180Z,1.63
2022-08-04T18:24:34.075Z,0.90
2022-08-04T18:27:11.470Z,2.27
2022-08-04T18:29:41.800Z,0.80
2022-08-04T18:32:33.044Z,1.20
2022-08-04T18:38:05.670Z,1.43
2022-08-04T18:40:53.186Z,1.23
2022-08-04T18:46:14.004Z,1.83
2022-08-04T18:48:41.874Z,1.23
2022-08-04T18:51:23.275Z,2.33
2022-08-04T18:56:38.857Z,2.33
2022-08-04T18:59:25.820Z,2.70
2022-08-04T19:02:12.573Z,4.33
2022-08-04T19:04:40.216Z,2.70
2022-08-04T19:07:28.879Z,3.27
2022-08-04T19:09:58.473Z,2.80
2022-08-04T19:12:28.249Z,3.30
2022-08-04T19:14:58.128Z,4.77
2022-08-04T19:17:55.201Z,1.30
2022-08-04T19:20:15.948Z,2.87
2022-08-04T19:24:11.679Z,2.90
2022-08-04T19:25:59.204Z,1.93
2022-08-04T19:28:29.709Z,1.87
2022-08-04T19:30:57.845Z,1.93
2022-08-04T19:33:25.587Z,2.60
2022-08-04T19:35:57.177Z,1.73
2022-08-04T19:38:24.113Z,2.33
2022-08-04T19:40:52.823Z,1.47
2022-08-04T19:43:20.859Z,1.97
2022-08-04T19:45:50.526Z,1.00
2022-08-04T19:48:19.631Z,1.47
2022-08-04T19:50:47.530Z,1.83
2022-08-04T19:53:19.346Z,1.97
2022-08-04T19:55:49.440Z,1.20
2022-08-04T19:58:17.860Z,1.70
2022-08-04T20:00:51.471Z,1.10
2022-08-04T20:03:20.091Z,1.43
2022-08-04T20:05:54.322Z,1.63
2022-08-04T20:08:24.348Z,2.20
2022-08-04T20:10:52.593Z,2.30
2022-08-04T20:13:30.548Z,2.63
2022-08-04T20:16:28.361Z,2.73
2022-08-04T20:19:00.913Z,2.33
2022-08-04T20:21:53.671Z,2.50
2022-08-04T20:24:41.515Z,1.60
2022-08-04T20:27:08.997Z,3.30
2022-08-04T20:29:43.488Z,2.07
2022-08-04T20:32:16.645Z,2.20
2022-08-04T20:34:46.917Z,3.23
2022-08-04T20:37:15.476Z,1.90
2022-08-04T20:39:42.905Z,2.17
2022-08-04T20:42:11.584Z,1.80
2022-08-04T20:44:42.131Z,1.50
2022-08-04T20:50:00.677Z,1.00
2022-08-04T20:52:29.336Z,1.23
2022-08-04T20:54:56.429Z,3.10
2022-08-04T20:57:47.995Z,2.30
2022-08-04T21:00:10.714Z,1.93
2022-08-04T21:02:40.507Z,4.50
2022-08-04T21:05:09.471Z,2.43
2022-08-04T21:07:43.712Z,1.93
2022-08-04T21:10:11.305Z,2.77
2022-08-04T21:12:38.363Z,5.77
2022-08-04T21:15:13.929Z,3.37
2022-08-04T21:17:58.844Z,4.80
2022-08-04T21:20:31.408Z,2.93
2022-08-04T21:22:59.388Z,3.93
2022-08-04T21:25:28.795Z,6.90
2022-08-04T21:27:59.053Z,2.10
2022-08-04T21:30:37.000Z,3.10
2022-08-04T21:33:18.480Z,3.23
2022-08-04T21:35:47.085Z,3.53
2022-08-04T21:38:17.663Z,1.50
2022-08-04T21:40:53.516Z,2.47
2022-08-04T21:43:23.655Z,1.73
2022-08-04T21:45:54.909Z,1.90
2022-08-04T21:48:23.124Z,1.50
2022-08-04T21:50:54.602Z,2.23
2022-08-04T21:53:21.937Z,2.83
2022-08-04T21:56:05.445Z,4.13
2022-08-04T21:58:38.023Z,1.40
2022-08-04T22:01:06.007Z,2.90
2022-08-04T22:03:51.826Z,3.67
2022-08-04T22:06:28.273Z,2.53
2022-08-04T22:08:57.115Z,2.70
2022-08-04T22:11:48.861Z,1.17
2022-08-04T22:14:17.028Z,1.33
2022-08-04T22:16:45.323Z,2.27
2022-08-04T22:19:13.703Z,1.30
2022-08-04T22:21:45.235Z,2.70
2022-08-04T22:24:14.304Z,1.33
2022-08-04T22:26:42.262Z,1.33
2022-08-04T22:29:14.490Z,0.80
2022-08-04T22:31:56.155Z,1.50
2022-08-04T22:34:28.296Z,1.60
2022-08-04T22:36:57.565Z,1.30
2022-08-04T22:39:27.517Z,1.00
2022-08-04T22:42:03.999Z,1.80
2022-08-04T22:44:33.429Z,6.43
2022-08-04T22:47:01.133Z,1.40
2022-08-04T22:49:31.611Z,0.90
2022-08-04T22:51:59.550Z,1.30
2022-08-04T22:54:28.572Z,0.93
2022-08-04T22:56:57.342Z,1.20
2022-08-04T22:59:24.528Z,2.03
2022-08-04T23:02:00.790Z,1.50
2022-08-04T23:04:30.201Z,1.57
2022-08-04T23:06:57.714Z,1.50
2022-08-04T23:09:26.890Z,1.40
2022-08-04T23:12:25.077Z,1.60
2022-08-04T23:14:54.850Z,1.10
2022-08-04T23:17:22.608Z,1.10
2022-08-04T23:19:57.368Z,1.00
2022-08-04T23:22:42.336Z,1.30
2022-08-04T23:25:15.310Z,2.63
2022-08-04T23:27:51.273Z,2.77
2022-08-04T23:30:29.811Z,2.40
2022-08-04T23:32:59.528Z,1.40
2022-08-04T23:35:26.660Z,1.37
2022-08-04T23:43:54.908Z,3.97
2022-08-04T23:46:25.619Z,1.93
2022-08-04T23:48:57.877Z,1.33
2022-08-04T23:51:25.203Z,1.40
2022-08-04T23:54:03.514Z,1.93
2022-08-04T23:56:40.754Z,1.87
2022-08-04T23:59:17.640Z,1.70
